Time;durP1;ratioP1;P1;durP2;ratioP2;P2;SDS_P1;SDS_P2;PMS_P1;PMS_P2;Temp;Humidity;BMP_temperature;BMP_pressure;BME280_temperature;BME280_humidity;BME280_pressure;Samples;Min_cycle;Max_cycle;Signal;HPM_P1;HPM_P2
2021/08/29 00:02:23;;;;;;;2.83;2.57;;;;;;;14.85;91.72;100923.06;5047084;28;20202;-84
2021/08/29 00:04:51;;;;;;;2.90;2.43;;;;;;;14.84;91.44;100919.50;5052436;22;20230;-69
2021/08/29 00:07:17;;;;;;;3.93;2.50;;;;;;;14.85;91.56;100912.31;5033068;28;20209;-70
2021/08/29 00:09:44;;;;;;;3.00;2.70;;;;;;;14.84;91.71;100908.78;5024992;28;20593;-71
2021/08/29 00:12:11;;;;;;;3.43;2.73;;;;;;;14.84;91.70;100910.63;5026508;28;20230;-70
2021/08/29 00:14:38;;;;;;;3.07;2.50;;;;;;;14.84;91.80;100913.28;5033575;28;20205;-71
2021/08/29 00:17:05;;;;;;;2.47;2.23;;;;;;;14.84;91.85;100914.16;5149061;22;20240;-69
2021/08/29 00:19:31;;;;;;;3.10;2.63;;;;;;;14.83;91.51;100914.28;5024796;28;20217;-69
2021/08/29 00:21:59;;;;;;;3.10;2.63;;;;;;;14.83;91.60;100914.28;5028542;28;20580;-68
2021/08/29 00:24:26;;;;;;;2.90;2.60;;;;;;;14.82;91.87;100900.00;5038099;28;20206;-70
2021/08/29 00:26:52;;;;;;;2.50;2.30;;;;;;;14.81;91.88;100906.34;5018566;28;20233;-69
2021/08/29 00:29:19;;;;;;;2.93;2.63;;;;;;;14.81;91.66;100897.44;5018691;28;20206;-69
2021/08/29 00:31:45;;;;;;;3.37;2.57;;;;;;;14.79;91.81;100894.88;5014853;28;20230;-68
2021/08/29 00:34:12;;;;;;;2.80;2.60;;;;;;;14.79;91.40;100902.06;5014063;28;20210;-68
2021/08/29 00:36:38;;;;;;;5.87;3.07;;;;;;;14.79;91.75;100899.38;5021705;28;20217;-70
2021/08/29 00:39:06;;;;;;;4.10;2.53;;;;;;;14.79;91.90;100896.69;5014155;28;20599;-70
2021/08/29 00:41:33;;;;;;;3.47;2.73;;;;;;;14.79;91.92;100897.56;5014596;28;20203;-69
2021/08/29 00:43:59;;;;;;;3.53;3.23;;;;;;;14.78;91.77;100897.66;5019277;28;20214;-69
2021/08/29 00:46:26;;;;;;;3.57;2.47;;;;;;;14.76;91.90;100895.09;5005472;28;20207;-69
2021/08/29 00:48:53;;;;;;;3.30;3.00;;;;;;;14.77;91.55;100901.31;5020341;28;20210;-69
2021/08/29 00:51:20;;;;;;;4.03;2.90;;;;;;;14.76;91.85;100902.28;5015590;28;20237;-69
2021/08/29 00:53:48;;;;;;;3.50;3.20;;;;;;;14.75;91.75;100898.75;5015519;28;20683;-69
2021/08/29 00:56:17;;;;;;;4.67;3.40;;;;;;;14.74;91.89;100898.88;5018042;28;20640;-69
2021/08/29 00:58:43;;;;;;;3.57;3.03;;;;;;;14.74;91.83;100898.88;5026451;28;20221;-69
2021/08/29 01:01:11;;;;;;;3.43;3.13;;;;;;;14.74;91.89;100896.19;5019110;28;20218;-68
2021/08/29 01:03:39;;;;;;;3.13;2.83;;;;;;;14.73;91.77;100889.13;5019215;28;20205;-68
2021/08/29 01:06:14;;;;;;;4.03;3.03;;;;;;;14.74;91.79;100896.19;5011896;28;20669;-68
2021/08/29 01:08:43;;;;;;;3.13;2.83;;;;;;;14.70;91.56;100897.38;5011633;28;20601;-69
2021/08/29 01:11:14;;;;;;;4.13;3.50;;;;;;;14.70;91.61;100897.38;5016059;28;20596;-68
2021/08/29 01:13:45;;;;;;;4.13;3.37;;;;;;;14.68;92.00;100894.84;5016551;28;20207;-69
2021/08/29 01:16:16;;;;;;;3.90;3.40;;;;;;;14.67;91.73;100889.59;5017962;28;20202;-68
2021/08/29 01:18:44;;;;;;;4.40;3.70;;;;;;;14.65;91.84;100889.72;5018494;28;20587;-69
2021/08/29 01:21:15;;;;;;;5.87;4.53;;;;;;;14.64;92.12;100890.69;5013345;28;20243;-69
2021/08/29 01:23:44;;;;;;;4.77;4.37;;;;;;;14.64;92.18;100881.78;5013365;28;20224;-70
2021/08/29 01:26:18;;;;;;;5.77;4.20;;;;;;;14.64;91.90;100881.78;5013002;28;20225;-70
2021/08/29 01:28:54;;;;;;;4.63;4.17;;;;;;;14.63;91.89;100883.63;5013743;28;20260;-69
2021/08/29 01:31:22;;;;;;;7.13;5.10;;;;;;;14.64;92.24;100889.84;5014101;28;20236;-69
2021/08/29 01:33:50;;;;;;;5.67;5.00;;;;;;;14.63;92.32;100891.66;5015431;28;20214;-69
2021/08/29 01:36:18;;;;;;;5.67;5.00;;;;;;;14.63;92.32;100888.97;5015308;28;20656;-69
2021/08/29 01:38:47;;;;;;;5.87;4.73;;;;;;;14.64;92.00;100887.16;5017360;28;20223;-69
2021/08/29 01:41:15;;;;;;;6.67;5.07;;;;;;;14.64;92.31;100889.84;5010110;28;20216;-68
2021/08/29 01:43:43;;;;;;;8.40;4.87;;;;;;;14.63;92.21;100882.75;5003469;28;20199;-69
2021/08/29 01:46:11;;;;;;;5.83;5.23;;;;;;;14.61;92.42;100880.19;5017611;28;20195;-68
2021/08/29 01:48:39;;;;;;;7.33;5.63;;;;;;;14.62;92.26;100881.06;5010194;28;20249;-69
2021/08/29 01:51:07;;;;;;;6.37;5.57;;;;;;;14.61;92.35;100880.19;5010317;28;20237;-70
2021/08/29 01:53:33;;;;;;;5.73;5.10;;;;;;;14.62;91.91;100881.06;5011175;28;20206;-69
2021/08/29 01:56:00;;;;;;;9.30;5.63;;;;;;;14.61;92.25;100876.66;5014321;28;20209;-69
2021/08/29 01:58:27;;;;;;;7.47;5.57;;;;;;;14.61;92.28;100874.84;5014649;28;20223;-69
2021/08/29 02:00:56;;;;;;;9.57;5.77;;;;;;;14.59;92.14;100874.94;5019954;28;20206;-70
2021/08/29 02:03:25;;;;;;;6.10;5.50;;;;;;;14.60;92.40;100875.81;5013812;28;20728;-70
2021/08/29 02:05:57;;;;;;;8.30;5.47;;;;;;;14.59;92.03;100872.28;5014085;28;20225;-68
2021/08/29 02:08:25;;;;;;;7.97;5.50;;;;;;;14.60;91.93;100873.13;5023884;28;20227;-68
2021/08/29 02:10:53;;;;;;;7.47;5.50;;;;;;;14.59;91.99;100877.63;5023632;28;20238;-69
2021/08/29 02:13:23;;;;;;;7.73;6.07;;;;;;;14.61;92.06;100876.66;5024698;28;20207;-68
2021/08/29 02:15:57;;;;;;;8.57;5.60;;;;;;;14.59;92.02;100883.00;5024700;28;20583;-68
2021/08/29 02:18:26;;;;;;;6.43;5.43;;;;;;;14.59;91.92;100876.78;5017779;28;20238;-69
2021/08/29 02:20:53;;;;;;;6.43;5.67;;;;;;;14.59;92.12;100869.59;5016667;28;20203;-69
2021/08/29 02:23:23;;;;;;;6.63;5.40;;;;;;;14.60;91.96;100870.44;5016056;28;20699;-69
2021/08/29 02:25:50;;;;;;;6.60;5.57;;;;;;;14.61;92.42;100866.78;5020121;28;20785;-69
2021/08/29 02:28:18;;;;;;;5.90;5.30;;;;;;;14.60;92.35;100867.78;5019552;28;20766;-68
2021/08/29 02:30:45;;;;;;;8.17;6.07;;;;;;;14.60;92.30;100870.44;5015275;28;20195;-69
2021/08/29 02:33:12;;;;;;;8.67;5.93;;;;;;;14.59;92.48;100864.22;5013844;28;20447;-69
2021/08/29 02:35:42;;;;;;;7.30;6.47;;;;;;;14.59;92.50;100861.56;5019399;28;20579;-69
2021/08/29 02:38:09;;;;;;;7.57;6.87;;;;;;;14.59;92.51;100856.19;5015936;28;20310;-68
2021/08/29 02:40:40;;;;;;;7.47;6.77;;;;;;;14.62;92.58;100856.94;5004264;28;20207;-69
2021/08/29 02:43:08;;;;;;;9.00;6.97;;;;;;;14.62;92.47;100863.16;5012445;28;20222;-69
2021/08/29 02:45:36;;;;;;;8.10;7.17;;;;;;;14.63;92.47;100855.97;5010320;28;20619;-69
2021/08/29 02:48:03;;;;;;;8.43;6.77;;;;;;;14.64;92.26;100860.34;5009168;28;20227;-69
2021/08/29 02:50:31;;;;;;;8.33;7.10;;;;;;;14.64;92.62;100852.31;5013980;28;20210;-69
2021/08/29 02:52:59;;;;;;;7.83;7.03;;;;;;;14.65;92.48;100859.38;5016631;28;20226;-69
2021/08/29 02:55:27;;;;;;;7.83;7.03;;;;;;;14.64;92.37;100849.63;5022546;28;20214;-68
2021/08/29 02:58:00;;;;;;;9.77;7.17;;;;;;;14.63;92.50;100859.50;5016805;28;20285;-69
2021/08/29 03:00:28;;;;;;;7.93;7.03;;;;;;;14.62;92.35;100860.47;5024538;28;20672;-70
2021/08/29 03:02:55;;;;;;;8.83;7.00;;;;;;;14.62;92.29;100856.94;5008396;28;20708;-69
2021/08/29 03:05:22;;;;;;;10.20;7.57;;;;;;;14.63;91.96;100858.63;5019947;28;20206;-69
2021/08/29 03:07:49;;;;;;;9.03;7.40;;;;;;;14.62;92.37;100859.63;5018442;28;20223;-70
2021/08/29 03:10:18;;;;;;;9.00;7.70;;;;;;;14.61;92.18;100857.91;5019377;28;20388;-69
2021/08/29 03:12:45;;;;;;;9.23;7.50;;;;;;;14.61;92.38;100853.41;5018556;28;20248;-69
2021/08/29 03:15:14;;;;;;;9.70;7.93;;;;;;;14.61;92.12;100852.53;5015498;28;20302;-69
2021/08/29 03:17:41;;;;;;;9.73;7.63;;;;;;;14.59;92.20;100849.97;5015336;28;20227;-68
2021/08/29 03:20:09;;;;;;;10.03;9.03;;;;;;;14.59;92.15;100852.66;5008181;28;20208;-68
2021/08/29 03:22:37;;;;;;;9.47;8.53;;;;;;;14.59;92.56;100847.28;5015019;28;20567;-69
2021/08/29 03:25:04;;;;;;;9.50;8.60;;;;;;;14.58;92.07;100848.25;5013439;28;20687;-70
2021/08/29 03:27:33;;;;;;;12.27;8.97;;;;;;;14.58;92.35;100841.06;5021021;28;20233;-69
2021/08/29 03:29:59;;;;;;;10.17;8.90;;;;;;;14.58;92.09;100849.13;5020296;28;20212;-69
2021/08/29 03:32:26;;;;;;;13.80;8.67;;;;;;;14.58;92.35;100842.91;5025327;28;20708;-69
2021/08/29 03:35:00;;;;;;;11.47;9.50;;;;;;;14.59;92.42;100837.44;5024594;28;20222;-69
2021/08/29 03:37:27;;;;;;;13.17;8.77;;;;;;;14.58;92.15;100837.53;5019840;28;20281;-69
2021/08/29 03:39:54;;;;;;;12.80;9.63;;;;;;;14.57;92.14;100834.00;5024980;28;20220;-69
2021/08/29 03:42:21;;;;;;;10.67;9.47;;;;;;;14.57;92.36;100834.00;5019989;28;20209;-69
2021/08/29 03:44:50;;;;;;;10.37;8.60;;;;;;;14.56;92.00;100829.63;5020143;28;20214;-70
2021/08/29 03:47:17;;;;;;;14.20;9.57;;;;;;;14.56;92.34;100829.63;5025855;28;20314;-69
2021/08/29 03:49:44;;;;;;;10.97;9.60;;;;;;;14.57;92.46;100831.31;5015723;28;20209;-70
2021/08/29 03:52:13;;;;;;;14.73;10.63;;;;;;;14.57;92.45;100823.28;5017431;28;20227;-69
2021/08/29 03:54:41;;;;;;;11.20;8.77;;;;;;;14.55;92.08;100822.53;5018775;28;20213;-70
2021/08/29 03:57:08;;;;;;;12.60;11.03;;;;;;;14.56;92.35;100823.41;5014119;28;20218;-68
2021/08/29 03:59:35;;;;;;;13.30;10.40;;;;;;;14.55;92.18;100819.00;5024390;28;20217;-70
2021/08/29 04:02:04;;;;;;;12.57;10.77;;;;;;;14.54;92.30;100823.53;5016382;28;20245;-69
2021/08/29 04:04:32;;;;;;;12.27;10.53;;;;;;;14.56;92.38;100820.72;5007293;28;20746;-70
2021/08/29 04:07:01;;;;;;;13.10;10.30;;;;;;;14.56;92.48;100821.56;5026373;28;20284;-69
2021/08/29 04:09:31;;;;;;;12.07;9.87;;;;;;;14.54;92.26;100814.63;5021830;28;20276;-69
2021/08/29 04:11:58;;;;;;;12.33;10.43;;;;;;;14.56;92.24;100818.91;5027098;28;20729;-70
2021/08/29 04:14:26;;;;;;;13.70;9.83;;;;;;;14.55;92.73;100821.69;5019079;28;20675;-69
2021/08/29 04:16:55;;;;;;;13.40;10.67;;;;;;;14.55;92.28;100821.69;5019354;28;20232;-69
2021/08/29 04:19:24;;;;;;;11.73;9.40;;;;;;;14.54;92.38;100825.34;5024217;28;20207;-69
2021/08/29 04:21:51;;;;;;;10.10;9.00;;;;;;;14.53;92.59;100820.94;5010101;28;20294;-70
2021/08/29 04:24:18;;;;;;;10.53;9.43;;;;;;;14.51;92.13;100815.72;5014941;28;20214;-69
2021/08/29 04:26:45;;;;;;;10.03;9.03;;;;;;;14.52;92.69;100820.09;5023223;28;20222;-74
2021/08/29 04:29:12;;;;;;;11.07;8.73;;;;;;;14.52;92.44;100820.09;5016374;28;20680;-69
2021/08/29 04:31:39;;;;;;;9.60;8.30;;;;;;;14.54;92.39;100819.97;5018555;28;20206;-69
2021/08/29 04:34:08;;;;;;;11.43;8.57;;;;;;;14.54;92.49;100818.16;5018385;28;20207;-70
2021/08/29 04:36:37;;;;;;;11.63;9.27;;;;;;;14.53;92.60;100818.28;5011755;28;20207;-68
2021/08/29 04:39:06;;;;;;;9.47;6.43;;;;;;;14.53;92.53;100816.44;5019709;28;20574;-70
2021/08/29 04:41:34;;;;;;;6.00;5.40;;;;;;;14.53;92.43;100816.44;5006344;28;20264;-69
2021/08/29 04:44:01;;;;;;;5.93;5.27;;;;;;;14.51;92.62;100821.06;5009700;28;20210;-69
2021/08/29 04:46:27;;;;;;;6.10;4.80;;;;;;;14.52;92.34;100816.56;5023188;28;20300;-70
2021/08/29 04:48:54;;;;;;;4.70;4.20;;;;;;;14.51;92.61;100817.56;5020674;28;20207;-69
2021/08/29 04:51:21;;;;;;;4.03;3.60;;;;;;;14.50;92.45;100822.06;5012991;28;20211;-69
2021/08/29 04:53:49;;;;;;;4.30;3.90;;;;;;;14.47;92.40;100819.63;5014775;28;20237;-68
2021/08/29 04:56:15;;;;;;;4.90;3.53;;;;;;;14.48;92.28;100815.13;5006939;28;20214;-70
2021/08/29 04:58:42;;;;;;;3.67;3.00;;;;;;;14.47;92.20;100818.75;5010597;28;20232;-68
2021/08/29 05:01:08;;;;;;;3.60;2.80;;;;;;;14.46;92.50;100822.41;5014127;28;20203;-68
2021/08/29 05:03:36;;;;;;;4.10;3.53;;;;;;;14.45;92.47;100826.06;5016723;28;20209;-70
2021/08/29 05:06:02;;;;;;;3.27;2.97;;;;;;;14.45;92.35;100829.59;5024917;28;20578;-69
2021/08/29 05:08:29;;;;;;;3.73;3.37;;;;;;;14.44;92.65;100822.53;5024665;28;20218;-70
2021/08/29 05:10:57;;;;;;;3.17;2.87;;;;;;;14.45;92.28;100821.56;5028799;28;20585;-69
2021/08/29 05:13:23;;;;;;;3.10;2.80;;;;;;;14.45;92.71;100821.56;5024368;28;20227;-69
2021/08/29 05:15:50;;;;;;;2.40;2.20;;;;;;;14.44;92.45;100821.69;5023663;28;20212;-70
2021/08/29 05:18:17;;;;;;;4.83;2.50;;;;;;;14.43;92.57;100823.50;5013497;28;20238;-68
2021/08/29 05:20:43;;;;;;;3.47;2.70;;;;;;;14.44;92.62;100824.34;5019283;28;20571;-70
2021/08/29 05:23:10;;;;;;;2.93;2.70;;;;;;;14.43;92.71;100826.19;5004593;28;20207;-69
2021/08/29 05:25:36;;;;;;;3.03;2.73;;;;;;;14.45;92.54;100821.56;5006148;28;20210;-69
2021/08/29 05:28:05;;;;;;;4.10;3.03;;;;;;;14.47;92.81;100822.31;5002145;28;20223;-69
2021/08/29 05:30:32;;;;;;;3.73;3.10;;;;;;;14.49;92.69;100824.88;5007302;28;20577;-69
2021/08/29 05:32:59;;;;;;;6.70;3.60;;;;;;;14.50;92.85;100832.78;5019552;28;20629;-69
2021/08/29 05:35:25;;;;;;;4.10;3.60;;;;;;;14.51;92.63;100825.59;5013836;28;20682;-69
2021/08/29 05:37:52;;;;;;;3.70;3.33;;;;;;;14.51;92.98;100821.06;5021405;28;20715;-68
2021/08/29 05:40:18;;;;;;;3.67;3.33;;;;;;;14.53;93.03;100823.63;5016932;28;20202;-69
2021/08/29 05:42:45;;;;;;;3.67;3.37;;;;;;;14.53;93.01;100824.50;5025098;28;20206;-70
2021/08/29 05:45:13;;;;;;;3.70;3.40;;;;;;;14.54;92.91;100825.34;5015461;28;20226;-69
2021/08/29 05:47:39;;;;;;;7.33;3.33;;;;;;;14.53;92.59;100829.00;5016915;28;20230;-69
2021/08/29 05:50:06;;;;;;;3.23;2.93;;;;;;;14.53;92.86;100823.63;5017479;28;20210;-69
2021/08/29 05:52:33;;;;;;;3.53;3.23;;;;;;;14.54;93.05;100828.03;5015610;28;20230;-69
2021/08/29 05:55:00;;;;;;;3.37;3.07;;;;;;;14.55;92.73;100827.06;5011829;28;20463;-69
2021/08/29 05:57:27;;;;;;;4.50;3.20;;;;;;;14.56;93.17;100826.94;5013423;28;20265;-69
2021/08/29 05:59:53;;;;;;;3.10;2.80;;;;;;;14.57;93.06;100823.28;5008048;28;20267;-69
2021/08/29 06:02:21;;;;;;;2.90;2.67;;;;;;;14.56;92.92;100824.25;5005661;28;20210;-67
2021/08/29 06:04:48;;;;;;;2.30;2.10;;;;;;;14.57;93.11;100828.66;4999304;28;20219;-68
2021/08/29 06:07:14;;;;;;;2.43;2.23;;;;;;;14.58;93.21;100822.31;4996376;28;20230;-68
2021/08/29 06:09:41;;;;;;;3.40;2.30;;;;;;;14.58;92.93;100824.16;4995436;28;20293;-69
2021/08/29 06:12:08;;;;;;;2.53;2.33;;;;;;;14.59;93.03;100826.72;4997536;28;20281;-68
2021/08/29 06:14:34;;;;;;;2.20;2.00;;;;;;;14.60;93.11;100824.88;5007562;28;20205;-69
2021/08/29 06:17:01;;;;;;;2.70;2.50;;;;;;;14.61;92.96;100825.72;5022332;23;20243;-72
2021/08/29 06:19:29;;;;;;;1.80;1.70;;;;;;;14.60;93.17;100822.19;5038838;28;20225;-71
2021/08/29 06:21:55;;;;;;;2.50;2.30;;;;;;;14.59;93.33;100817.81;5045426;28;20201;-71
2021/08/29 06:24:22;;;;;;;2.40;2.20;;;;;;;14.59;93.05;100818.66;5042396;28;20586;-71
2021/08/29 06:26:48;;;;;;;2.83;2.33;;;;;;;14.58;93.56;100825.00;5044369;28;20208;-71
2021/08/29 06:29:16;;;;;;;4.30;2.00;;;;;;;14.62;93.53;100824.75;5021646;28;20208;-70
2021/08/29 06:31:43;;;;;;;2.30;2.10;;;;;;;14.61;93.15;100817.69;5020556;28;20210;-71
2021/08/29 06:34:09;;;;;;;2.63;2.43;;;;;;;14.60;93.30;100816.84;5026294;28;20709;-71
2021/08/29 06:36:37;;;;;;;2.80;2.30;;;;;;;14.63;93.31;100821.13;5024860;28;20214;-71
2021/08/29 06:39:04;;;;;;;2.07;1.80;;;;;;;14.62;93.04;100812.22;5061900;23;20272;-70
2021/08/29 06:41:31;;;;;;;2.17;1.97;;;;;;;14.64;93.60;100812.09;5019149;28;20203;-70
2021/08/29 06:43:58;;;;;;;2.87;2.20;;;;;;;14.64;93.21;100817.47;5021992;28;20209;-71
2021/08/29 06:46:24;;;;;;;2.23;1.93;;;;;;;14.65;93.16;100816.50;5017030;28;20213;-70
2021/08/29 06:48:51;;;;;;;3.93;2.10;;;;;;;14.65;93.63;100821.84;5021958;28;20228;-70
2021/08/29 06:51:17;;;;;;;2.93;2.23;;;;;;;14.65;93.37;100813.81;5048185;23;21091;-78
2021/08/29 06:53:45;;;;;;;2.43;2.23;;;;;;;14.63;93.76;100810.38;5051050;28;20236;-79
2021/08/29 06:56:13;;;;;;;3.20;2.30;;;;;;;14.65;93.74;100814.66;5042367;28;20532;-79
2021/08/29 06:58:40;;;;;;;3.33;3.03;;;;;;;14.65;93.34;100805.78;5043928;28;20289;-78
2021/08/29 07:01:07;;;;;;;3.43;2.70;;;;;;;14.63;93.73;100802.34;5045739;28;20220;-78
2021/08/29 07:03:33;;;;;;;3.30;2.97;;;;;;;14.65;93.68;100806.63;5049046;28;20223;-78
2021/08/29 07:06:00;;;;;;;3.27;2.97;;;;;;;14.66;93.47;100808.34;5048472;28;20230;-78
2021/08/29 07:08:26;;;;;;;3.40;3.10;;;;;;;14.68;93.37;100816.25;5044499;28;20222;-79
2021/08/29 07:10:54;;;;;;;2.93;2.73;;;;;;;14.68;93.65;100816.25;5043449;28;20202;-79
2021/08/29 07:13:21;;;;;;;4.23;3.23;;;;;;;14.67;93.39;100811.88;5042087;28;20236;-79
2021/08/29 07:15:47;;;;;;;3.90;3.50;;;;;;;14.68;93.59;100817.13;5045578;28;20303;-77
2021/08/29 07:18:14;;;;;;;4.83;3.33;;;;;;;14.70;93.69;100816.97;5051826;28;20209;-77
2021/08/29 07:20:40;;;;;;;3.40;3.10;;;;;;;14.70;93.49;100820.50;5044585;28;20273;-77
2021/08/29 07:23:07;;;;;;;3.80;3.33;;;;;;;14.71;93.51;100810.63;5046779;28;20241;-77
2021/08/29 07:25:34;;;;;;;3.87;3.37;;;;;;;14.70;93.24;100811.59;5042314;28;20218;-77
2021/08/29 07:28:03;;;;;;;3.60;3.17;;;;;;;14.70;93.28;100819.66;5049114;28;20210;-78
2021/08/29 07:30:29;;;;;;;3.90;3.03;;;;;;;14.70;93.30;100817.81;5044707;28;20217;-78
2021/08/29 07:32:57;;;;;;;3.73;3.07;;;;;;;14.70;93.53;100820.50;5046900;28;20747;-78
2021/08/29 07:35:23;;;;;;;3.80;3.00;;;;;;;14.71;93.39;100816.00;5044595;28;20270;-77
2021/08/29 07:37:50;;;;;;;3.30;3.00;;;;;;;14.71;93.08;100818.66;5039768;28;20297;-78
2021/08/29 07:40:19;;;;;;;3.63;3.17;;;;;;;14.74;93.25;100818.44;5039158;28;20210;-77
2021/08/29 07:42:46;;;;;;;4.03;3.40;;;;;;;14.74;93.44;100819.28;5045802;28;20290;-77
2021/08/29 07:45:14;;;;;;;5.03;2.90;;;;;;;14.75;93.15;100822.84;5043501;28;20230;-77
2021/08/29 07:47:41;;;;;;;3.47;2.63;;;;;;;14.75;93.19;100817.47;5043581;28;20277;-77
2021/08/29 07:50:09;;;;;;;4.77;3.53;;;;;;;14.73;92.92;100820.25;5044253;28;20210;-78
2021/08/29 07:52:35;;;;;;;3.60;2.70;;;;;;;14.74;92.92;100829.16;5039441;28;20242;-77
2021/08/29 07:55:02;;;;;;;3.53;2.80;;;;;;;14.74;92.87;100826.47;5047072;28;20828;-77
2021/08/29 07:57:33;;;;;;;3.27;2.93;;;;;;;14.74;93.14;100831.84;5048393;28;20218;-78
2021/08/29 08:00:01;;;;;;;4.37;3.70;;;;;;;14.74;92.93;100829.16;5043160;28;20206;-78
2021/08/29 08:02:29;;;;;;;3.73;3.40;;;;;;;14.74;93.49;100827.34;5041890;28;20233;-79
2021/08/29 08:04:58;;;;;;;3.77;3.27;;;;;;;14.76;92.91;100829.91;5054229;28;20216;-79
2021/08/29 08:07:25;;;;;;;3.00;2.70;;;;;;;14.78;93.06;100834.19;5043339;28;20213;-79
2021/08/29 08:09:51;;;;;;;3.83;2.83;;;;;;;14.79;93.12;100825.16;5037828;28;20270;-78
2021/08/29 08:12:19;;;;;;;3.00;2.70;;;;;;;14.81;93.02;100823.22;5038092;28;20317;-78
2021/08/29 08:14:45;;;;;;;3.20;2.90;;;;;;;14.84;93.37;100830.19;5044112;28;20227;-79
2021/08/29 08:17:12;;;;;;;2.80;2.60;;;;;;;14.84;93.36;100828.34;5044642;28;20278;-79
2021/08/29 08:19:40;;;;;;;3.87;2.97;;;;;;;14.87;93.43;100829.91;5038912;28;20956;-78
2021/08/29 08:22:06;;;;;;;2.57;2.37;;;;;;;14.91;93.35;100831.38;5041240;28;20259;-79
2021/08/29 08:24:34;;;;;;;2.50;2.30;;;;;;;14.93;93.01;100837.47;5041144;28;20262;-79
2021/08/29 08:27:01;;;;;;;2.80;2.30;;;;;;;14.93;93.01;100829.44;5040844;28;20294;-78
2021/08/29 08:29:27;;;;;;;2.60;2.40;;;;;;;14.93;93.24;100834.78;5045301;28;20214;-76
2021/08/29 08:31:54;;;;;;;2.70;2.20;;;;;;;14.93;93.31;100829.44;5044106;28;20228;-77
2021/08/29 08:34:20;;;;;;;2.90;2.33;;;;;;;14.97;93.25;100832.75;5052130;28;20221;-78
2021/08/29 08:36:48;;;;;;;2.87;2.27;;;;;;;14.98;92.95;100832.63;5044516;28;20206;-78
2021/08/29 08:39:16;;;;;;;2.50;2.17;;;;;;;15.00;93.16;100841.41;5051623;28;20212;-79
2021/08/29 08:41:43;;;;;;;2.20;1.93;;;;;;;15.03;93.05;100840.31;5050914;28;20228;-78
2021/08/29 08:44:09;;;;;;;2.30;2.10;;;;;;;15.04;93.11;100840.19;5046816;28;20203;-79
2021/08/29 08:46:37;;;;;;;2.50;2.30;;;;;;;15.08;92.96;100838.09;5052835;28;20238;-76
2021/08/29 08:49:06;;;;;;;2.27;2.00;;;;;;;15.09;93.18;100848.72;5040108;28;20212;-78
2021/08/29 08:51:37;;;;;;;2.10;1.90;;;;;;;15.11;92.98;100846.75;5044680;28;20237;-78
2021/08/29 08:54:08;;;;;;;2.87;1.90;;;;;;;15.13;93.07;100841.28;5040393;28;20322;-78
2021/08/29 08:56:35;;;;;;;1.63;1.47;;;;;;;15.14;92.90;100840.31;5036654;28;20203;-78
2021/08/29 08:59:05;;;;;;;1.73;1.63;;;;;;;15.14;93.00;100840.31;5039756;28;20637;-78
2021/08/29 09:01:32;;;;;;;1.67;1.57;;;;;;;15.14;92.95;100841.16;5043038;28;20257;-78
2021/08/29 09:03:59;;;;;;;1.70;1.60;;;;;;;15.17;92.67;100835.56;5048832;28;20206;-78
2021/08/29 09:06:26;;;;;;;2.33;1.70;;;;;;;15.20;92.85;100846.03;5030369;28;20210;-78
2021/08/29 09:08:53;;;;;;;2.73;2.10;;;;;;;15.22;92.74;100844.09;5041588;28;20207;-78
2021/08/29 09:11:21;;;;;;;2.40;2.20;;;;;;;15.22;92.92;100840.56;5039953;28;20230;-78
2021/08/29 09:13:55;;;;;;;3.10;2.80;;;;;;;15.24;92.91;100836.75;5045113;28;20222;-77
2021/08/29 09:16:25;;;;;;;3.40;3.10;;;;;;;15.26;92.91;100845.53;5043763;28;20201;-78
2021/08/29 09:18:52;;;;;;;3.93;3.00;;;;;;;15.27;92.83;100838.34;5040143;28;20202;-78
2021/08/29 09:21:20;;;;;;;3.30;3.00;;;;;;;15.28;92.50;100835.53;5039718;28;20304;-78
2021/08/29 09:23:47;;;;;;;3.53;3.03;;;;;;;15.28;92.77;100840.06;5039124;28;20215;-77
2021/08/29 09:26:15;;;;;;;3.30;2.97;;;;;;;15.28;92.62;100843.59;5035764;28;20309;-77
2021/08/29 09:28:43;;;;;;;2.77;2.57;;;;;;;15.31;92.47;100847.00;5045727;28;20218;-77
2021/08/29 09:31:10;;;;;;;3.17;2.43;;;;;;;15.32;92.41;100837.97;5038461;28;20224;-78
2021/08/29 09:33:37;;;;;;;3.67;2.50;;;;;;;15.31;92.60;100845.19;5042575;28;20229;-78
2021/08/29 09:36:04;;;;;;;2.63;2.43;;;;;;;15.30;92.46;100846.16;5042911;28;20202;-78
2021/08/29 09:38:39;;;;;;;2.40;2.20;;;;;;;15.34;92.66;100842.25;5031997;28;20209;-77
2021/08/29 09:41:21;;;;;;;2.67;2.47;;;;;;;15.35;92.24;100843.09;5040371;28;20218;-77
2021/08/29 09:43:49;;;;;;;2.53;2.33;;;;;;;15.36;92.37;100845.69;5045491;28;20234;-77
2021/08/29 09:46:15;;;;;;;3.20;2.60;;;;;;;15.38;92.56;100853.59;5044478;28;20211;-78
2021/08/29 09:48:48;;;;;;;2.87;2.33;;;;;;;15.39;92.48;100847.25;5041407;28;20206;-78
2021/08/29 09:51:15;;;;;;;3.07;2.70;;;;;;;15.42;92.53;100852.34;5043664;28;20202;-78
2021/08/29 09:53:43;;;;;;;3.63;3.27;;;;;;;15.43;92.15;100846.00;5042091;28;20225;-78
2021/08/29 09:56:21;;;;;;;3.00;2.70;;;;;;;15.45;92.12;100844.06;5032771;28;20227;-77
2021/08/29 09:58:49;;;;;;;2.97;2.67;;;;;;;15.49;92.20;100851.75;5037808;28;20206;-78
2021/08/29 10:01:17;;;;;;;3.47;3.17;;;;;;;15.52;92.30;100847.97;5034929;28;20197;-78
2021/08/29 10:03:45;;;;;;;3.37;2.73;;;;;;;15.56;92.01;100853.00;5039603;28;20226;-78
2021/08/29 10:06:20;;;;;;;3.20;2.90;;;;;;;15.59;92.06;100842.00;5036311;28;20226;-77
2021/08/29 10:08:49;;;;;;;4.07;3.20;;;;;;;15.64;92.16;100847.00;5035264;28;20211;-78
2021/08/29 10:11:16;;;;;;;3.87;2.83;;;;;;;15.68;92.13;100850.28;5045018;28;20202;-78
2021/08/29 10:13:43;;;;;;;3.77;3.30;;;;;;;15.71;92.02;100845.53;5048452;28;20262;-78
2021/08/29 10:16:12;;;;;;;3.03;2.77;;;;;;;15.75;91.83;100852.38;5042671;28;20220;-78
2021/08/29 10:18:41;;;;;;;2.87;2.67;;;;;;;15.77;91.69;100842.31;5042891;28;20206;-78
2021/08/29 10:21:10;;;;;;;3.50;3.20;;;;;;;15.79;91.69;100839.53;5040953;28;20215;-78
2021/08/29 10:23:39;;;;;;;4.03;3.50;;;;;;;15.79;91.47;100845.75;5036011;28;20267;-78
2021/08/29 10:26:07;;;;;;;3.60;2.83;;;;;;;15.79;91.42;100843.06;5037474;28;20463;-78
2021/08/29 10:28:39;;;;;;;4.00;3.60;;;;;;;15.82;91.39;100839.28;5042584;28;20287;-78
2021/08/29 10:31:09;;;;;;;3.73;2.97;;;;;;;15.83;91.46;100831.09;5040429;28;20209;-78
2021/08/29 10:33:39;;;;;;;3.37;3.07;;;;;;;15.87;91.10;100835.25;5043480;28;20231;-76
2021/08/29 10:36:06;;;;;;;3.70;3.40;;;;;;;15.89;91.07;100830.59;5046121;28;20213;-77
2021/08/29 10:38:34;;;;;;;3.50;3.20;;;;;;;15.93;90.67;100834.75;5034176;28;20217;-76
2021/08/29 10:41:05;;;;;;;5.93;5.40;;;;;;;15.94;90.75;100830.22;5042821;28;20728;-77
2021/08/29 10:43:35;;;;;;;5.23;4.73;;;;;;;15.97;90.64;100836.16;5034771;28;20210;-77
2021/08/29 10:46:02;;;;;;;5.97;5.37;;;;;;;16.01;90.63;100831.41;5041627;28;20210;-77
2021/08/29 10:48:30;;;;;;;5.27;4.33;;;;;;;16.05;90.63;100827.50;5043272;28;20203;-78
2021/08/29 10:50:58;;;;;;;7.43;6.03;;;;;;;16.12;90.55;100823.28;5042654;28;20213;-77
2021/08/29 10:53:33;;;;;;;6.97;5.60;;;;;;;16.19;90.26;100831.69;5043516;28;20206;-77
2021/08/29 10:56:29;;;;;;;4.63;4.13;;;;;;;16.25;90.24;100837.44;5039692;28;20220;-77
2021/08/29 10:59:21;;;;;;;4.50;4.10;;;;;;;16.29;89.95;100838.88;5036045;28;20500;-76
2021/08/29 11:01:49;;;;;;;3.70;3.40;;;;;;;16.33;89.83;100831.38;5039113;28;20244;-76
2021/08/29 11:04:58;;;;;;;3.87;3.53;;;;;;;16.33;89.58;100839.44;5044980;28;20216;-77
2021/08/29 11:07:50;;;;;;;3.53;3.23;;;;;;;16.33;89.44;100837.63;5029129;28;20231;-77
2021/08/29 11:10:46;;;;;;;2.90;2.70;;;;;;;16.35;89.02;100833.94;5038456;28;20678;-77
2021/08/29 11:13:36;;;;;;;2.63;2.43;;;;;;;16.35;88.72;100831.25;5051452;28;20233;-77
2021/08/29 11:16:25;;;;;;;3.40;2.80;;;;;;;16.39;88.64;100833.56;5039224;28;20256;-77
2021/08/29 11:19:14;;;;;;;3.10;2.80;;;;;;;16.44;88.71;100830.50;5036748;28;20205;-77
2021/08/29 11:22:13;;;;;;;2.73;2.53;;;;;;;16.50;88.49;100835.34;5047441;28;20229;-77
2021/08/29 11:25:01;;;;;;;3.40;2.80;;;;;;;16.54;88.38;100826.88;5030164;28;20240;-76
2021/08/29 11:27:49;;;;;;;3.10;2.90;;;;;;;16.58;88.05;100828.31;5040264;28;20324;-77
2021/08/29 11:30:18;;;;;;;3.50;3.20;;;;;;;16.64;88.02;100830.53;5042825;28;20199;-76
2021/08/29 11:32:46;;;;;;;3.07;2.70;;;;;;;16.71;87.91;100830.84;5039885;28;20260;-76